• Join FlightAware (Why Join?)
  • Login
  • US Flag 
01:20PM EDT


 

Airport Tracker/Info


-or-


 

Live Flight TrackerFlight Track Log ✈ N6711L ✈ 10-Dec-2013 ✈ 07FA - KAPF

Flight Track Log - Related Links

Times and Time Zones

All times are in EST time to prevent confusion due to time zone crossing. See the N6711L flight status page for this flight to view local times or setup timezone preferences in your user account.

Time Position Orientation Groundspeed Altitude Reporting Facility
EST Latitude Longitude Course Direction KTS MPH feet Rate Location/Type
11:55AM 25.3653 -80.2922 338° Northwest 142 163 2,000  Level Miami Center
11:56AM 25.4003 -80.3139 331° Northwest 135 155 3,200 540 Climbing Miami Center
11:57AM 25.4394 -80.3381 331° Northwest 187 215 3,200  Level Miami Center
11:58AM 25.4847 -80.3644 332° Northwest 178 205 3,300 660 Climbing Miami Center
11:59AM 25.5197 -80.3839 333° Northwest 150 173 4,500 1,200 Climbing Miami Center
12:00PM 25.5611 -80.4058 334° Northwest 156 180 5,700 1,200 Climbing Miami Center
12:01PM 25.6086 -80.4233 342° North 152 175 7,200 1,080 Climbing Miami Center
12:02PM 25.6461 -80.4292 352° North 150 173 8,100 480 Climbing Miami Center
12:03PM 25.6961 -80.4353 354° North 176 203 8,200  Climbing Miami Center
12:04PM 25.7461 -80.4436 351° North 177 204 8,200  Level Miami Center
12:05PM 25.7961 -80.4522 351° North 183 211 8,200  Level Miami Center
12:06PM 25.8481 -80.4583 354° North 180 207 8,200  Level Miami Center
12:07PM 25.8981 -80.4644 354° North 177 204 8,200  Level Miami Center
12:08PM 25.9411 -80.4981 325° Northwest 174 200 8,200  Level Miami Center
12:09PM 25.9758 -80.5336 317° Northwest 176 203 8,200  Level Miami Center
12:10PM 26.0103 -80.5672 319° Northwest 175 201 8,200  Level Miami Center
12:11PM 26.0492 -80.6008 322° Northwest 176 203 8,200  Level Miami Center
12:13PM 26.1144 -80.6675 317° Northwest 176 203 8,200  Level Miami Center
12:14PM 26.1511 -80.7011 321° Northwest 192 221 8,200  Level Miami Center
12:15PM 26.1875 -80.7392 317° Northwest 192 221 8,200  Level Miami Center
12:16PM 26.2242 -80.7753 319° Northwest 186 214 8,200  Level Miami Center
12:17PM 26.2567 -80.8111 315° West 181 208 8,200  Level Miami Center
12:18PM 26.2614 -80.8667 275° West 156 180 8,200  Level Miami Center
12:19PM 26.2622 -80.9131 271° West 167 192 8,200  Level Miami Center
12:20PM 26.2606 -80.9733 268° West 177 204 8,200  Level Miami Center
12:21PM 26.2572 -81.0194 265° West 177 204 8,200  Level Miami Center
12:22PM 26.2597 -81.0775 273° West 177 204 8,200 -600 Level Miami Center
12:23PM 26.2497 -81.1303 258° West 177 204 7,100 -960 Descending Miami Center
12:24PM 26.2256 -81.1758 239° Southwest 177 204 6,300 -960 Descending Miami Center
12:25PM 26.2117 -81.2217 251° West 172 198 5,200 -1,020 Descending Miami Center
12:26PM 26.2081 -81.2678 265° West 167 192 4,300 -600 Descending Miami Center
12:27PM 26.2047 -81.3139 265° West 157 181 4,100 -300 Descending Miami Center
12:28PM 26.2008 -81.3669 265° West 157 181 3,700 -360 Descending Miami Center
12:29PM 26.2036 -81.4158 274° West 162 186 3,400 -300 Descending Miami Center
12:30PM 26.2103 -81.4717 278° West 168 193 3,100 -180 Descending Miami Center
12:31PM 26.2169 -81.5228 278° West 168 193 3,100 -120 Level Miami Center
12:32PM 26.2194 -81.5714 273° West 168 193 2,900 -420 Descending Miami Center
12:33PM 26.2217 -81.6317 272° West 173 199 2,300 -600 Descending Miami Center
12:35PM 26.1940 -81.6838 239° Southwest  Level FlightAware Approximate
12:42PM 26.1500 -81.7667 261° West  Level FlightAware Approximate
12:43PM 26.1524 -81.7756 261° West  Level Estimated
12:44PM 26.1524 -81.7756 261° West  Level Estimated